Time;durP1;ratioP1;P1;durP2;ratioP2;P2;SDS_P1;SDS_P2;PMS_P1;PMS_P2;Temp;Humidity;BMP_temperature;BMP_pressure;BME280_temperature;BME280_humidity;BME280_pressure;Samples;Min_cycle;Max_cycle;Signal;HPM_P1;HPM_P2
2023/06/29 00:01:56;;;;;;;15.93;6.65;;;21.90;99.90;;;;;;4945278;28;20500;-75
2023/06/29 00:04:25;;;;;;;10.82;5.75;;;21.90;99.90;;;;;;4925653;28;20431;-76
2023/06/29 00:06:54;;;;;;;14.30;5.80;;;21.80;99.90;;;;;;4933532;28;20415;-76
2023/06/29 00:09:21;;;;;;;10.00;5.45;;;21.70;99.90;;;;;;4940993;28;20424;-76
2023/06/29 00:11:48;;;;;;;8.93;5.43;;;21.70;99.90;;;;;;4920705;28;20446;-76
2023/06/29 00:14:14;;;;;;;8.38;5.25;;;21.70;99.90;;;;;;4923728;28;20419;-76
2023/06/29 00:16:42;;;;;;;14.50;5.50;;;21.60;99.90;;;;;;4905008;28;20424;-76
2023/06/29 00:19:08;;;;;;;12.00;5.40;;;21.60;99.90;;;;;;4918633;28;20426;-76
2023/06/29 00:21:34;;;;;;;14.35;5.85;;;21.70;99.90;;;;;;4923336;28;20426;-76
2023/06/29 00:24:02;;;;;;;13.55;6.32;;;21.70;99.90;;;;;;4920168;28;20411;-75
2023/06/29 00:26:29;;;;;;;13.90;5.57;;;21.80;99.90;;;;;;4942830;28;20482;-76
2023/06/29 00:28:56;;;;;;;12.48;5.22;;;21.70;99.90;;;;;;4923161;28;21032;-76
2023/06/29 00:31:24;;;;;;;13.82;6.10;;;21.70;99.90;;;;;;4927561;28;20934;-76
2023/06/29 00:33:51;;;;;;;14.63;6.17;;;21.60;99.90;;;;;;4921544;28;20458;-76
2023/06/29 00:36:18;;;;;;;10.70;5.82;;;21.60;99.90;;;;;;4924903;28;20593;-76
2023/06/29 00:38:44;;;;;;;11.23;5.75;;;21.60;99.90;;;;;;4914060;28;21019;-76
2023/06/29 00:41:10;;;;;;;11.40;6.13;;;21.60;99.90;;;;;;4917990;28;20428;-76
2023/06/29 00:43:36;;;;;;;9.85;5.50;;;21.60;99.90;;;;;;4946006;28;20483;-76
2023/06/29 00:46:07;;;;;;;8.18;5.35;;;21.60;99.90;;;;;;4919098;28;20891;-76
2023/06/29 00:48:38;;;;;;;9.77;5.80;;;21.60;99.90;;;;;;4947256;28;20442;-76
2023/06/29 00:51:05;;;;;;;10.70;5.53;;;21.60;99.90;;;;;;4921360;28;21046;-74
2023/06/29 00:53:32;;;;;;;9.10;5.20;;;21.60;99.90;;;;;;4945705;28;20966;-73
2023/06/29 00:56:02;;;;;;;9.57;5.07;;;21.60;99.90;;;;;;5006628;28;20469;-73
2023/06/29 00:58:29;;;;;;;10.90;5.07;;;21.50;99.90;;;;;;4919104;28;20423;-73
2023/06/29 01:00:58;;;;;;;10.10;5.00;;;21.40;99.90;;;;;;4920855;28;20513;-73
2023/06/29 01:03:24;;;;;;;8.07;4.95;;;21.30;99.90;;;;;;4920004;28;20889;-74
2023/06/29 01:05:58;;;;;;;9.10;4.80;;;21.30;99.90;;;;;;4925646;28;21254;-74
2023/06/29 01:08:33;;;;;;;7.07;4.60;;;21.30;99.90;;;;;;4925054;28;20456;-74
2023/06/29 01:11:03;;;;;;;5.78;4.28;;;21.40;99.90;;;;;;4918986;28;20434;-74
2023/06/29 01:13:32;;;;;;;8.10;4.72;;;21.30;99.90;;;;;;4921819;28;20474;-74
2023/06/29 01:15:59;;;;;;;8.07;4.30;;;21.40;99.90;;;;;;4918330;28;20420;-74
2023/06/29 01:18:30;;;;;;;9.30;4.57;;;21.30;99.90;;;;;;4922468;28;20416;-74
2023/06/29 01:20:59;;;;;;;7.65;4.20;;;21.30;99.90;;;;;;4922240;28;20427;-74
2023/06/29 01:23:36;;;;;;;6.40;4.00;;;21.20;99.90;;;;;;4924711;28;20432;-74
2023/06/29 01:26:06;;;;;;;6.87;4.27;;;21.20;99.90;;;;;;4948127;28;20429;-74
2023/06/29 01:28:38;;;;;;;6.13;4.28;;;21.20;99.90;;;;;;4942523;28;20817;-74
2023/06/29 01:31:07;;;;;;;6.60;4.15;;;21.20;99.90;;;;;;4920540;28;20787;-74
2023/06/29 01:33:33;;;;;;;6.20;4.20;;;21.20;99.90;;;;;;4945663;28;20493;-74
2023/06/29 01:36:42;;;;;;;8.05;4.03;;;21.20;99.90;;;;;;4936270;28;20412;-74
2023/06/29 01:39:29;;;;;;;8.68;4.28;;;21.10;99.90;;;;;;4918803;28;20427;-74
2023/06/29 01:41:56;;;;;;;9.55;4.63;;;21.10;99.90;;;;;;4948748;28;20794;-74
2023/06/29 01:44:22;;;;;;;8.70;4.70;;;21.10;99.90;;;;;;4925604;28;20440;-74
2023/06/29 01:46:50;;;;;;;7.78;4.65;;;21.00;99.90;;;;;;4922971;28;21460;-74
2023/06/29 01:49:16;;;;;;;9.95;4.70;;;21.00;99.90;;;;;;4941800;28;20509;-74
2023/06/29 01:51:42;;;;;;;9.05;4.60;;;21.00;99.90;;;;;;4923577;28;20883;-74
2023/06/29 01:54:08;;;;;;;7.82;4.40;;;21.00;99.90;;;;;;4946676;28;20478;-74
2023/06/29 01:56:34;;;;;;;11.07;5.20;;;21.00;99.90;;;;;;4922219;28;21028;-75
2023/06/29 01:59:02;;;;;;;12.23;5.23;;;21.00;99.90;;;;;;4916999;28;20499;-74
2023/06/29 02:01:30;;;;;;;7.13;4.75;;;20.90;99.90;;;;;;4919227;28;20415;-74
2023/06/29 02:03:56;;;;;;;7.93;4.60;;;20.90;99.90;;;;;;4914692;28;20425;-74
2023/06/29 02:06:23;;;;;;;8.57;4.40;;;20.90;99.90;;;;;;4934682;28;20838;-73
2023/06/29 02:08:49;;;;;;;10.20;4.55;;;20.90;99.90;;;;;;4915285;28;20456;-73
2023/06/29 02:11:16;;;;;;;9.73;4.60;;;20.80;99.90;;;;;;4938702;28;20432;-73
2023/06/29 02:13:42;;;;;;;7.45;4.70;;;20.80;99.90;;;;;;4914499;28;20538;-73
2023/06/29 02:16:08;;;;;;;10.23;5.00;;;20.80;99.90;;;;;;4916562;28;20423;-73
2023/06/29 02:18:34;;;;;;;13.88;5.28;;;20.80;99.90;;;;;;4919724;28;20432;-73
2023/06/29 02:21:00;;;;;;;10.00;4.90;;;20.80;99.90;;;;;;4915637;28;20936;-73
2023/06/29 02:23:27;;;;;;;12.60;4.95;;;20.80;99.90;;;;;;4931693;28;22191;-73
2023/06/29 02:25:53;;;;;;;9.73;4.80;;;20.80;99.90;;;;;;4941703;28;20432;-73
2023/06/29 02:28:19;;;;;;;8.95;4.95;;;20.80;99.90;;;;;;4917911;28;20432;-73
2023/06/29 02:30:45;;;;;;;9.10;4.90;;;20.80;99.90;;;;;;4925213;28;20429;-73
2023/06/29 02:33:11;;;;;;;17.73;5.83;;;20.80;99.90;;;;;;4927307;28;20516;-73
2023/06/29 02:35:37;;;;;;;11.43;5.28;;;20.80;99.90;;;;;;4924083;28;20426;-73
2023/06/29 02:38:04;;;;;;;11.10;5.00;;;20.80;99.90;;;;;;4925233;28;20476;-73
2023/06/29 02:40:30;;;;;;;12.00;4.82;;;20.90;99.90;;;;;;4926675;28;20427;-73
2023/06/29 02:42:56;;;;;;;9.55;4.68;;;20.90;99.90;;;;;;4923424;28;20934;-73
2023/06/29 02:45:22;;;;;;;7.78;4.63;;;20.90;99.90;;;;;;4950328;28;20821;-73
2023/06/29 02:47:49;;;;;;;9.32;4.68;;;20.90;99.90;;;;;;4919394;28;20505;-74
2023/06/29 02:50:15;;;;;;;8.07;4.33;;;20.90;99.90;;;;;;4928766;28;20934;-74
2023/06/29 02:52:41;;;;;;;6.20;4.20;;;21.00;99.90;;;;;;4921272;28;20415;-74
2023/06/29 02:55:08;;;;;;;5.60;4.13;;;21.00;99.90;;;;;;4922266;28;20425;-74
2023/06/29 02:57:34;;;;;;;5.50;4.15;;;21.10;99.90;;;;;;4936568;28;20458;-74
2023/06/29 03:00:00;;;;;;;5.60;3.93;;;21.00;99.90;;;;;;4925598;28;20804;-74
2023/06/29 03:02:26;;;;;;;7.35;4.18;;;21.00;99.90;;;;;;4921090;28;20439;-74
2023/06/29 03:04:52;;;;;;;5.43;4.03;;;21.00;99.90;;;;;;4933243;28;20433;-74
2023/06/29 03:07:19;;;;;;;7.95;4.20;;;21.10;99.90;;;;;;4933037;28;20752;-74
2023/06/29 03:09:45;;;;;;;7.25;4.35;;;21.10;99.90;;;;;;4922518;28;20431;-74
2023/06/29 03:12:12;;;;;;;5.32;4.00;;;21.10;99.90;;;;;;4921505;28;20517;-74
2023/06/29 03:14:38;;;;;;;6.53;3.95;;;21.10;99.90;;;;;;4942235;28;20969;-74
2023/06/29 03:17:05;;;;;;;7.13;4.10;;;21.10;99.90;;;;;;4936509;28;20422;-74
2023/06/29 03:19:31;;;;;;;5.70;4.20;;;21.00;99.90;;;;;;4908032;28;20544;-74
2023/06/29 03:21:58;;;;;;;7.50;4.40;;;21.00;99.90;;;;;;4921628;28;20418;-74
2023/06/29 03:24:24;;;;;;;5.90;4.13;;;21.00;99.90;;;;;;4921209;28;20423;-74
2023/06/29 03:26:50;;;;;;;9.82;4.43;;;21.00;99.90;;;;;;4922859;28;20419;-74
2023/06/29 03:29:16;;;;;;;8.23;4.40;;;21.00;99.90;;;;;;4926361;28;20512;-74
2023/06/29 03:31:43;;;;;;;6.55;4.30;;;21.10;99.90;;;;;;4927012;28;21032;-74
2023/06/29 03:34:09;;;;;;;10.45;4.35;;;21.10;99.90;;;;;;4922707;28;20769;-74
2023/06/29 03:36:35;;;;;;;9.75;4.65;;;21.10;99.90;;;;;;4902662;28;20432;-74
2023/06/29 03:39:01;;;;;;;7.00;4.40;;;21.00;99.90;;;;;;4920891;28;21220;-73
2023/06/29 03:41:27;;;;;;;7.73;4.40;;;21.10;99.90;;;;;;4924563;28;20458;-74
2023/06/29 03:43:55;;;;;;;6.97;4.47;;;21.10;99.90;;;;;;4925906;28;20460;-73
2023/06/29 03:46:21;;;;;;;6.22;4.28;;;21.20;99.90;;;;;;4926012;28;20996;-74
2023/06/29 03:48:48;;;;;;;6.88;4.18;;;21.20;99.90;;;;;;4920160;28;21036;-74
2023/06/29 03:51:15;;;;;;;6.50;4.72;;;21.20;99.90;;;;;;4941874;28;20749;-73
2023/06/29 03:53:41;;;;;;;7.35;4.50;;;21.30;99.90;;;;;;4945737;28;20467;-73
2023/06/29 03:56:10;;;;;;;6.50;4.30;;;21.30;99.90;;;;;;4930562;28;20839;-73
2023/06/29 03:58:36;;;;;;;7.38;4.30;;;21.40;99.90;;;;;;4927658;28;20506;-73
2023/06/29 04:01:03;;;;;;;7.82;4.60;;;21.40;99.90;;;;;;4917321;28;20919;-73
2023/06/29 04:03:29;;;;;;;7.20;4.23;;;21.40;99.90;;;;;;4917747;28;20850;-73
2023/06/29 04:05:55;;;;;;;7.20;4.22;;;21.40;99.90;;;;;;4944226;28;20434;-73
2023/06/29 04:08:21;;;;;;;6.53;4.68;;;21.40;99.90;;;;;;4923799;28;20971;-74
2023/06/29 04:10:48;;;;;;;8.55;4.55;;;21.30;99.90;;;;;;4943052;28;20736;-73
2023/06/29 04:13:14;;;;;;;5.03;4.50;;;21.40;99.90;;;;;;4928005;28;20475;-73
2023/06/29 04:15:41;;;;;;;7.80;4.82;;;21.40;99.90;;;;;;4935583;28;20420;-74
2023/06/29 04:18:07;;;;;;;6.75;4.50;;;21.50;99.90;;;;;;4926404;28;20446;-73
2023/06/29 04:20:35;;;;;;;7.63;4.82;;;21.50;99.90;;;;;;4919315;28;21064;-73
2023/06/29 04:23:01;;;;;;;5.97;4.43;;;21.60;99.90;;;;;;4932106;28;20430;-73
2023/06/29 04:25:27;;;;;;;6.80;4.47;;;21.60;99.90;;;;;;4929020;28;20791;-73
2023/06/29 04:27:53;;;;;;;7.10;4.40;;;21.70;99.90;;;;;;4933282;28;20432;-73
2023/06/29 04:30:20;;;;;;;6.07;4.43;;;21.80;99.90;;;;;;4934618;28;20930;-75
2023/06/29 04:32:51;;;;;;;7.85;4.40;;;21.90;99.90;;;;;;4958520;28;20440;-74
2023/06/29 04:35:17;;;;;;;6.55;4.53;;;22.00;99.90;;;;;;4928369;28;20423;-74
2023/06/29 04:37:43;;;;;;;5.30;4.10;;;22.00;99.90;;;;;;4928417;28;20415;-74
2023/06/29 04:40:14;;;;;;;6.40;4.25;;;22.10;99.90;;;;;;4919928;28;20419;-74
2023/06/29 04:42:49;;;;;;;8.05;4.88;;;22.20;99.90;;;;;;4925848;28;20439;-75
2023/06/29 04:45:18;;;;;;;5.88;4.80;;;22.20;99.90;;;;;;4932661;28;20870;-74
2023/06/29 04:47:54;;;;;;;7.27;4.47;;;22.20;99.90;;;;;;4926467;28;20423;-74
2023/06/29 04:50:25;;;;;;;6.73;4.30;;;22.30;99.90;;;;;;4929252;28;20466;-75
2023/06/29 04:52:59;;;;;;;6.70;4.40;;;22.40;99.90;;;;;;4924640;28;20907;-74
2023/06/29 04:55:25;;;;;;;6.68;4.28;;;22.50;99.90;;;;;;4953719;28;20497;-74
2023/06/29 04:57:52;;;;;;;7.30;4.47;;;22.60;99.90;;;;;;4939623;28;20421;-74
2023/06/29 05:00:20;;;;;;;5.93;4.05;;;22.50;99.90;;;;;;4960759;28;20486;-74
2023/06/29 05:02:46;;;;;;;6.68;4.28;;;22.70;99.90;;;;;;4914574;28;20425;-74
2023/06/29 05:05:12;;;;;;;4.82;4.30;;;22.70;99.90;;;;;;4931828;28;20922;-74
2023/06/29 05:07:38;;;;;;;7.83;4.33;;;22.70;99.90;;;;;;4916864;28;22805;-74
2023/06/29 05:10:05;;;;;;;6.72;4.30;;;22.80;99.90;;;;;;4912977;28;20985;-74
2023/06/29 05:12:32;;;;;;;6.30;4.30;;;22.90;99.90;;;;;;4918175;28;21188;-74
2023/06/29 05:14:58;;;;;;;6.47;4.53;;;23.00;99.90;;;;;;4918175;28;20451;-73
2023/06/29 05:17:24;;;;;;;4.93;4.40;;;23.00;99.90;;;;;;4924645;28;20897;-74
2023/06/29 05:19:50;;;;;;;7.88;4.57;;;23.10;99.90;;;;;;4936453;28;21316;-74
2023/06/29 05:22:16;;;;;;;9.77;4.78;;;23.20;99.90;;;;;;4919667;28;20519;-74
2023/06/29 05:24:43;;;;;;;5.77;4.40;;;23.20;99.90;;;;;;4926984;28;20418;-74
2023/06/29 05:27:09;;;;;;;7.05;4.60;;;23.30;99.90;;;;;;4920309;28;20440;-74
2023/06/29 05:29:37;;;;;;;6.18;4.40;;;23.30;99.90;;;;;;4929984;28;21019;-75
2023/06/29 05:32:04;;;;;;;7.63;4.38;;;23.40;99.90;;;;;;4927586;28;20415;-74
2023/06/29 05:34:31;;;;;;;6.80;4.35;;;23.50;99.90;;;;;;4926268;28;20510;-74
2023/06/29 05:36:57;;;;;;;8.55;4.85;;;23.60;99.90;;;;;;4917403;28;20436;-74
2023/06/29 05:39:23;;;;;;;7.53;4.70;;;23.70;99.90;;;;;;4927268;28;20428;-74
2023/06/29 05:41:50;;;;;;;8.50;4.85;;;23.80;99.90;;;;;;4936449;28;20434;-74
2023/06/29 05:44:16;;;;;;;7.38;5.07;;;23.80;99.90;;;;;;4928713;28;20422;-74
2023/06/29 05:46:42;;;;;;;10.27;4.88;;;23.80;99.90;;;;;;4936222;28;20474;-74
2023/06/29 05:49:08;;;;;;;8.13;5.13;;;23.90;99.90;;;;;;4945811;28;20485;-74
2023/06/29 05:51:37;;;;;;;8.30;5.40;;;24.00;99.90;;;;;;4951455;28;20414;-75
2023/06/29 05:54:06;;;;;;;8.90;5.43;;;24.10;99.90;;;;;;4919674;28;20419;-75
2023/06/29 05:56:33;;;;;;;9.70;6.00;;;24.30;99.90;;;;;;4917419;28;20468;-74
2023/06/29 05:58:59;;;;;;;8.40;5.70;;;24.40;99.90;;;;;;4943788;28;20414;-75
2023/06/29 06:01:26;;;;;;;8.50;5.93;;;24.50;99.90;;;;;;4906762;28;21129;-74
2023/06/29 06:03:52;;;;;;;7.57;5.47;;;24.50;99.90;;;;;;4914478;28;20758;-75
2023/06/29 06:06:18;;;;;;;9.23;5.28;;;24.60;99.90;;;;;;4915384;28;20437;-75
2023/06/29 06:08:44;;;;;;;11.53;5.30;;;24.60;99.90;;;;;;4916153;28;20778;-75
2023/06/29 06:11:10;;;;;;;8.70;5.40;;;24.70;99.90;;;;;;4916537;28;20469;-74
2023/06/29 06:13:37;;;;;;;9.23;5.10;;;24.90;99.90;;;;;;4927435;28;21153;-74
2023/06/29 06:16:04;;;;;;;8.23;4.65;;;24.90;99.90;;;;;;4927698;28;20747;-74
2023/06/29 06:18:31;;;;;;;7.55;4.65;;;24.90;99.90;;;;;;4918904;28;21006;-74
2023/06/29 06:20:58;;;;;;;8.67;4.93;;;24.90;99.90;;;;;;4916517;28;20517;-74
2023/06/29 06:23:24;;;;;;;5.75;4.68;;;25.00;99.90;;;;;;4923364;28;20427;-74
2023/06/29 06:25:50;;;;;;;7.97;5.00;;;25.10;99.90;;;;;;4922334;28;20785;-75
2023/06/29 06:28:16;;;;;;;7.88;4.82;;;25.10;99.90;;;;;;4928541;28;20947;-73
2023/06/29 06:30:42;;;;;;;5.57;4.50;;;25.10;99.90;;;;;;4925351;28;20439;-73
2023/06/29 06:33:09;;;;;;;8.68;4.97;;;25.20;99.90;;;;;;4920916;28;20415;-73
2023/06/29 06:35:35;;;;;;;8.23;5.07;;;25.30;99.90;;;;;;4916798;28;20458;-73
2023/06/29 06:38:01;;;;;;;11.20;4.73;;;25.40;99.90;;;;;;4918199;28;20773;-73
2023/06/29 06:40:28;;;;;;;9.07;5.00;;;25.40;99.90;;;;;;4917684;28;20447;-73
2023/06/29 06:42:54;;;;;;;7.50;4.60;;;25.50;99.90;;;;;;4920602;28;20491;-74
2023/06/29 06:45:20;;;;;;;8.82;4.68;;;25.60;99.90;;;;;;4931827;28;20813;-74
2023/06/29 06:47:46;;;;;;;8.80;5.03;;;25.80;99.90;;;;;;4922582;28;20788;-74
2023/06/29 06:50:13;;;;;;;9.60;5.13;;;26.00;99.90;;;;;;4939738;28;20592;-74
2023/06/29 06:52:39;;;;;;;7.47;5.10;;;26.00;99.90;;;;;;4932549;28;20438;-74
2023/06/29 06:55:06;;;;;;;7.97;4.70;;;26.00;99.90;;;;;;4928228;28;22190;-74
2023/06/29 06:57:33;;;;;;;6.53;4.63;;;26.20;99.90;;;;;;4902163;28;20507;-74
2023/06/29 06:59:59;;;;;;;8.88;5.00;;;26.20;99.90;;;;;;4905014;28;20418;-74
2023/06/29 07:02:25;;;;;;;9.15;5.00;;;26.30;99.90;;;;;;4920753;28;20513;-74
2023/06/29 07:04:54;;;;;;;7.40;4.90;;;26.30;99.90;;;;;;4919466;28;20789;-75
2023/06/29 07:07:20;;;;;;;6.75;4.57;;;26.40;99.90;;;;;;4925029;28;20440;-74
2023/06/29 07:09:46;;;;;;;9.18;4.80;;;26.50;99.90;;;;;;4932649;28;20424;-74
2023/06/29 07:12:12;;;;;;;8.93;5.00;;;26.60;99.90;;;;;;4917771;28;20446;-74
2023/06/29 07:14:39;;;;;;;8.70;4.88;;;26.80;99.90;;;;;;4918664;28;21234;-74
2023/06/29 07:17:06;;;;;;;10.73;5.38;;;26.80;99.90;;;;;;4922878;28;20431;-74
2023/06/29 07:19:32;;;;;;;7.78;4.55;;;26.90;99.90;;;;;;4918434;28;20498;-74
2023/06/29 07:21:59;;;;;;;10.05;4.80;;;26.90;99.90;;;;;;4922143;28;20922;-74
2023/06/29 07:24:25;;;;;;;12.93;5.35;;;26.90;99.90;;;;;;4946597;28;20977;-74
2023/06/29 07:26:52;;;;;;;12.60;5.10;;;27.10;99.90;;;;;;4948269;28;20850;-74
2023/06/29 07:29:18;;;;;;;10.73;4.97;;;27.20;99.90;;;;;;4929284;28;20486;-74
2023/06/29 07:31:44;;;;;;;8.27;5.10;;;27.30;99.90;;;;;;4932200;28;20782;-74
2023/06/29 07:34:10;;;;;;;9.48;4.90;;;27.40;99.90;;;;;;4931591;28;20414;-74
2023/06/29 07:36:37;;;;;;;7.50;4.70;;;27.50;99.90;;;;;;4918205;28;20499;-74
2023/06/29 07:39:03;;;;;;;8.63;5.05;;;27.60;99.90;;;;;;4935508;28;21153;-74
2023/06/29 07:41:34;;;;;;;8.43;5.13;;;27.70;99.90;;;;;;4918926;28;20459;-74
2023/06/29 07:44:01;;;;;;;7.88;4.70;;;27.70;99.90;;;;;;4924784;28;21428;-74
2023/06/29 07:46:27;;;;;;;9.77;4.60;;;27.80;99.90;;;;;;4947745;28;20414;-74
2023/06/29 07:48:54;;;;;;;8.77;4.97;;;27.90;99.90;;;;;;4939658;28;20450;-74
2023/06/29 07:51:21;;;;;;;9.32;4.78;;;28.20;99.90;;;;;;4950341;28;20899;-74
2023/06/29 07:53:47;;;;;;;9.35;4.82;;;28.30;99.90;;;;;;4929897;28;20424;-74
2023/06/29 07:56:14;;;;;;;9.55;4.72;;;28.30;99.90;;;;;;4952523;28;20423;-74
2023/06/29 07:58:40;;;;;;;9.68;4.82;;;28.40;99.90;;;;;;4910891;28;20422;-74
2023/06/29 08:01:07;;;;;;;12.00;4.95;;;28.50;99.90;;;;;;4926433;28;20938;-74
2023/06/29 08:03:33;;;;;;;8.88;4.85;;;28.50;99.90;;;;;;4922841;28;20427;-75
2023/06/29 08:05:59;;;;;;;9.55;4.90;;;28.50;99.90;;;;;;4923830;28;21026;-75
2023/06/29 08:08:29;;;;;;;8.93;4.70;;;28.60;99.90;;;;;;4931867;28;20451;-74
2023/06/29 08:10:56;;;;;;;8.55;4.50;;;28.70;99.90;;;;;;4946315;28;20412;-75
2023/06/29 08:13:23;;;;;;;8.50;4.68;;;28.90;99.90;;;;;;4919839;28;20423;-75
2023/06/29 08:15:49;;;;;;;7.63;4.38;;;29.00;99.90;;;;;;4921401;28;20477;-74
2023/06/29 08:18:16;;;;;;;10.98;4.55;;;29.10;99.90;;;;;;4928103;28;20942;-75
2023/06/29 08:20:42;;;;;;;11.15;4.75;;;29.10;99.90;;;;;;4934360;28;20457;-74
2023/06/29 08:23:08;;;;;;;10.13;4.60;;;29.10;99.90;;;;;;4900834;28;20564;-74
2023/06/29 08:25:34;;;;;;;8.87;4.30;;;29.10;99.90;;;;;;4921011;28;20420;-74
2023/06/29 08:28:01;;;;;;;11.00;4.72;;;29.30;99.90;;;;;;4925177;28;22406;-75
2023/06/29 08:30:27;;;;;;;8.40;4.50;;;29.40;99.90;;;;;;4926797;28;20799;-75
2023/06/29 08:32:54;;;;;;;8.18;4.57;;;29.40;99.90;;;;;;4930002;28;20503;-75
2023/06/29 08:35:22;;;;;;;8.68;4.43;;;29.50;99.90;;;;;;4932319;28;20417;-74
2023/06/29 08:37:48;;;;;;;7.57;4.57;;;29.60;99.90;;;;;;4922363;28;20418;-75
2023/06/29 08:40:22;;;;;;;8.95;4.60;;;29.50;99.90;;;;;;4916862;28;20478;-75
2023/06/29 08:42:49;;;;;;;7.53;4.63;;;29.70;99.90;;;;;;4919874;28;20516;-76
2023/06/29 08:45:16;;;;;;;9.10;4.80;;;29.80;99.90;;;;;;4919083;28;20467;-75
2023/06/29 08:47:46;;;;;;;9.27;4.80;;;29.90;99.90;;;;;;4904745;28;20436;-75
2023/06/29 08:50:14;;;;;;;9.52;4.25;;;30.10;99.90;;;;;;4907372;28;20431;-75
2023/06/29 08:52:42;;;;;;;8.77;4.60;;;30.20;99.90;;;;;;4934938;28;21880;-74
2023/06/29 08:55:09;;;;;;;11.13;4.68;;;30.30;99.90;;;;;;4912124;28;20491;-74
2023/06/29 08:57:38;;;;;;;7.40;4.47;;;30.30;99.90;;;;;;4913072;28;20415;-74
2023/06/29 09:00:05;;;;;;;9.70;4.80;;;30.20;99.90;;;;;;4903494;28;20816;-74
2023/06/29 09:02:33;;;;;;;9.63;4.40;;;30.30;99.90;;;;;;4914131;28;20448;-74
2023/06/29 09:05:00;;;;;;;10.43;4.50;;;30.30;99.90;;;;;;4919391;28;20437;-74
2023/06/29 09:07:26;;;;;;;10.07;4.70;;;30.40;99.90;;;;;;4941738;28;20427;-74
2023/06/29 09:09:53;;;;;;;10.15;4.72;;;30.40;99.90;;;;;;4928078;28;20459;-74
2023/06/29 09:12:19;;;;;;;10.70;4.70;;;30.50;99.90;;;;;;4914801;28;20427;-74
2023/06/29 09:14:47;;;;;;;11.60;5.10;;;30.60;99.90;;;;;;4915097;28;20456;-74
2023/06/29 09:17:16;;;;;;;9.35;4.53;;;30.70;99.90;;;;;;4910547;28;20426;-74
2023/06/29 09:19:54;;;;;;;13.23;4.50;;;30.80;99.90;;;;;;4913007;28;20698;-74
2023/06/29 09:22:21;;;;;;;9.27;4.53;;;30.90;99.90;;;;;;4919898;28;20428;-74
2023/06/29 09:24:49;;;;;;;10.07;4.32;;;30.70;99.90;;;;;;4917253;28;20454;-74
2023/06/29 09:27:15;;;;;;;9.80;4.05;;;30.50;99.90;;;;;;4914650;28;20767;-74
2023/06/29 09:29:51;;;;;;;8.73;4.57;;;30.70;99.90;;;;;;4916114;28;20921;-74
2023/06/29 09:32:17;;;;;;;10.63;4.40;;;30.70;99.90;;;;;;4936454;28;20430;-75
2023/06/29 09:34:48;;;;;;;9.47;4.30;;;30.80;99.90;;;;;;4942143;28;20509;-74
2023/06/29 09:37:18;;;;;;;8.20;4.22;;;30.90;99.90;;;;;;4918013;28;20463;-74
2023/06/29 09:40:03;;;;;;;8.50;4.30;;;31.00;99.90;;;;;;4917610;28;20988;-74
2023/06/29 09:42:29;;;;;;;9.57;4.87;;;31.30;99.90;;;;;;4946462;28;20476;-74
2023/06/29 09:45:02;;;;;;;11.43;4.40;;;31.60;99.90;;;;;;4910882;28;20437;-74
2023/06/29 09:47:33;;;;;;;7.97;4.25;;;31.60;99.90;;;;;;4920241;28;20507;-74
2023/06/29 09:49:59;;;;;;;11.05;4.22;;;31.80;99.90;;;;;;4918853;28;20529;-74
2023/06/29 09:52:25;;;;;;;12.05;4.30;;;31.70;99.90;;;;;;4927630;28;21007;-74
2023/06/29 09:54:59;;;;;;;10.07;4.30;;;31.70;99.90;;;;;;4931957;28;20425;-74
2023/06/29 09:57:28;;;;;;;11.00;4.22;;;31.70;99.90;;;;;;4932437;28;20910;-74
2023/06/29 09:59:55;;;;;;;12.60;4.50;;;31.80;99.90;;;;;;4927355;28;20495;-74
2023/06/29 10:02:21;;;;;;;10.30;4.53;;;31.80;99.90;;;;;;4918323;28;22035;-74
2023/06/29 10:04:47;;;;;;;11.05;4.60;;;31.70;99.90;;;;;;4918652;28;20488;-74
2023/06/29 10:07:16;;;;;;;10.77;4.35;;;31.70;99.90;;;;;;4919400;28;21090;-74
2023/06/29 10:09:48;;;;;;;12.17;4.40;;;31.60;99.90;;;;;;4943486;28;20971;-74
2023/06/29 10:12:18;;;;;;;11.93;4.32;;;31.50;99.90;;;;;;4922489;28;20458;-74
2023/06/29 10:14:46;;;;;;;8.37;4.30;;;31.30;99.90;;;;;;4920913;28;20496;-74
2023/06/29 10:17:30;;;;;;;11.50;4.30;;;31.50;99.90;;;;;;4922039;28;20988;-74
2023/06/29 10:20:03;;;;;;;8.98;4.53;;;31.60;99.90;;;;;;4915661;28;20460;-74
2023/06/29 10:22:31;;;;;;;8.38;4.15;;;31.50;99.90;;;;;;4915988;28;20480;-74
2023/06/29 10:25:03;;;;;;;9.25;4.30;;;31.60;99.90;;;;;;4923682;28;20801;-74
2023/06/29 10:27:33;;;;;;;9.07;4.47;;;31.60;99.90;;;;;;4924919;28;20419;-74
2023/06/29 10:30:06;;;;;;;11.30;4.68;;;31.40;99.90;;;;;;4919227;28;20951;-74
2023/06/29 10:32:41;;;;;;;8.77;4.30;;;31.40;99.90;;;;;;4914546;28;20594;-73
2023/06/29 10:35:13;;;;;;;8.88;4.15;;;31.50;99.90;;;;;;4912430;28;20490;-73
2023/06/29 10:37:43;;;;;;;9.43;4.70;;;31.60;99.90;;;;;;4913503;28;20514;-73
2023/06/29 10:40:17;;;;;;;8.82;4.28;;;31.60;99.90;;;;;;4929138;28;20443;-73
2023/06/29 10:42:43;;;;;;;8.65;4.35;;;31.60;99.90;;;;;;4939503;28;20517;-73
2023/06/29 10:45:16;;;;;;;9.57;4.25;;;31.60;99.90;;;;;;4913459;28;20439;-73
2023/06/29 10:47:43;;;;;;;8.05;4.30;;;31.40;99.90;;;;;;4914687;28;20486;-73
2023/06/29 10:50:10;;;;;;;11.80;4.47;;;31.40;99.90;;;;;;4913304;28;21238;-73
2023/06/29 10:52:42;;;;;;;9.05;4.43;;;31.60;99.90;;;;;;4921794;28;20508;-73
2023/06/29 10:55:22;;;;;;;10.85;4.82;;;31.60;99.90;;;;;;4931741;28;22579;-72
2023/06/29 10:57:54;;;;;;;7.18;3.90;;;31.40;99.90;;;;;;4916974;28;20506;-72
2023/06/29 11:00:23;;;;;;;6.82;3.92;;;31.40;99.90;;;;;;4913888;28;20437;-73
2023/06/29 11:02:50;;;;;;;8.70;4.15;;;31.30;99.90;;;;;;4901015;28;20423;-73
2023/06/29 11:05:18;;;;;;;8.10;4.15;;;31.30;99.90;;;;;;4901661;28;20423;-73
2023/06/29 11:07:52;;;;;;;6.72;3.75;;;31.20;99.90;;;;;;4914632;28;20423;-72
2023/06/29 11:10:22;;;;;;;8.80;4.28;;;31.10;99.90;;;;;;4929805;28;20918;-72
2023/06/29 11:12:50;;;;;;;11.60;4.10;;;31.10;99.90;;;;;;4916796;28;20788;-73
2023/06/29 11:15:18;;;;;;;7.93;4.10;;;31.00;99.90;;;;;;4906693;28;20885;-72
2023/06/29 11:17:49;;;;;;;6.35;3.50;;;30.90;99.90;;;;;;4914021;28;20429;-72
2023/06/29 11:20:18;;;;;;;6.97;3.90;;;31.00;99.90;;;;;;4918410;28;20926;-72
2023/06/29 11:22:45;;;;;;;11.10;4.03;;;30.90;99.90;;;;;;4917327;28;21109;-73
2023/06/29 11:25:18;;;;;;;7.73;3.90;;;30.90;99.90;;;;;;4914354;28;20463;-72
2023/06/29 11:27:45;;;;;;;8.02;4.00;;;30.90;99.90;;;;;;4915025;28;20431;-73
2023/06/29 11:30:12;;;;;;;9.68;4.10;;;30.90;99.90;;;;;;4913447;28;20435;-73
2023/06/29 11:32:40;;;;;;;8.33;3.93;;;31.00;99.90;;;;;;4938462;28;20792;-73
2023/06/29 11:35:10;;;;;;;8.07;3.87;;;31.00;99.90;;;;;;4910683;28;20431;-72
2023/06/29 11:37:40;;;;;;;9.85;4.18;;;31.00;99.90;;;;;;4898256;28;20435;-72
2023/06/29 11:40:20;;;;;;;10.20;4.07;;;31.00;99.90;;;;;;4909203;28;20936;-73
2023/06/29 11:42:51;;;;;;;8.90;4.15;;;31.10;99.90;;;;;;4934659;28;20459;-72
2023/06/29 11:45:18;;;;;;;8.02;4.45;;;31.10;99.90;;;;;;4914451;28;20507;-73
2023/06/29 11:47:50;;;;;;;7.38;4.30;;;30.90;99.90;;;;;;4913298;28;20431;-73
2023/06/29 11:50:17;;;;;;;11.38;4.38;;;31.00;99.90;;;;;;4927822;28;20546;-73
2023/06/29 11:52:45;;;;;;;8.03;4.20;;;31.10;99.90;;;;;;4901782;28;20484;-72
2023/06/29 11:55:15;;;;;;;7.43;4.20;;;31.10;99.90;;;;;;4918210;28;20435;-73
2023/06/29 11:57:50;;;;;;;7.80;4.32;;;31.10;99.90;;;;;;4896021;28;20509;-73
2023/06/29 12:00:16;;;;;;;9.35;4.00;;;31.10;99.90;;;;;;4914724;28;20830;-72
2023/06/29 12:02:44;;;;;;;9.07;4.13;;;31.00;99.90;;;;;;4941501;28;20437;-72
2023/06/29 12:05:10;;;;;;;7.75;4.10;;;31.00;99.90;;;;;;4918851;28;20509;-73
2023/06/29 12:07:43;;;;;;;8.63;4.45;;;31.00;99.90;;;;;;4926272;28;20462;-72
2023/06/29 12:10:21;;;;;;;10.98;4.30;;;30.90;99.90;;;;;;4917437;28;20511;-73
2023/06/29 12:12:59;;;;;;;10.87;4.40;;;30.90;99.90;;;;;;4908221;28;20428;-72
2023/06/29 12:15:28;;;;;;;8.15;4.13;;;30.80;99.90;;;;;;4924524;28;21922;-72
2023/06/29 12:18:20;;;;;;;8.70;4.30;;;30.80;99.90;;;;;;4940258;28;21003;-72
2023/06/29 12:20:47;;;;;;;7.97;4.40;;;30.80;99.90;;;;;;4911455;28;20427;-73
2023/06/29 12:23:15;;;;;;;8.70;3.70;;;30.80;99.90;;;;;;4921277;28;20579;-72
2023/06/29 12:25:48;;;;;;;5.22;3.80;;;30.80;99.90;;;;;;4912639;28;20460;-73
2023/06/29 12:28:16;;;;;;;6.67;4.00;;;30.80;99.90;;;;;;4913419;28;20424;-72
2023/06/29 12:30:42;;;;;;;9.18;4.40;;;30.80;99.90;;;;;;4908194;28;20444;-73
2023/06/29 12:33:12;;;;;;;7.10;4.18;;;30.90;99.90;;;;;;4922213;28;20579;-73
2023/06/29 12:35:39;;;;;;;7.07;4.10;;;30.90;99.90;;;;;;4896726;28;20469;-73
2023/06/29 12:38:06;;;;;;;7.65;4.20;;;30.90;99.90;;;;;;4910442;28;20450;-72
2023/06/29 12:40:32;;;;;;;8.15;4.18;;;30.90;99.90;;;;;;4909407;28;20843;-73
2023/06/29 12:43:00;;;;;;;8.43;4.50;;;30.90;99.90;;;;;;4908286;28;20893;-73
2023/06/29 12:45:27;;;;;;;7.75;4.53;;;30.90;99.90;;;;;;4942325;28;20517;-73
2023/06/29 12:47:54;;;;;;;7.68;4.00;;;30.80;99.90;;;;;;4917449;28;20445;-73
2023/06/29 12:50:20;;;;;;;7.87;4.20;;;30.90;99.90;;;;;;4918363;28;20431;-73